Sbi Perseus — D5KQ9 — position and weather

sailwx.info

Track history (hours):
 
Tides and Currents Weather Stations Pressure Air Temp Water Temp Dewpoint Dewpoint Depression Visibility Wind Speed Wind Dir Waves Ship Positions

Sbi Perseus

Last reported at 2018-Jun-19 16:34 UTC. Time now 2018-Jun-21 11:45 UTC.
Position N 35°59' W 007°56'.

Length 200 m; draft 12.3 m.

Type: Cargo ship. MMSI: 636017388.

Date/timePositionNaut miles runAvg speedWind from/ knotsBaromVisibWave heightAir tempDewpointWater temp
2018-Jun-19 16:34N 35°59' W 007°56'111.5
2018-Jun-19 16:30N 35°59' W 007°55'711.2
2018-Jun-19 15:51N 35°59' W 007°46'411.3
2018-Jun-19 15:27N 35°59' W 007°41'1111.1
2018-Jun-19 14:26N 35°59' W 007°27'101 7.4
2018-Jun-19 00:53N 36°07' W 005°22'0 0.0
2018-Jun-18 22:14N 36°07' W 005°22'0 0.1
2018-Jun-18 21:20N 36°07' W 005°22'0 0.2
2018-Jun-18 20:44N 36°07' W 005°22'0 0.1
2018-Jun-18 20:26N 36°07' W 005°22'0 0.1
2018-Jun-18 19:56N 36°07' W 005°22'0 0.0
2018-Jun-18 19:26N 36°07' W 005°22'0 0.0
2018-Jun-18 18:59N 36°07' W 005°22'0 0.3
2018-Jun-18 18:29N 36°07' W 005°22'0 0.0
2018-Jun-18 17:56N 36°07' W 005°22'0 0.0
2018-Jun-18 17:23N 36°07' W 005°22'0 0.0
2018-Jun-18 16:38N 36°07' W 005°22'0 0.1
2018-Jun-18 16:11N 36°07' W 005°22'0 0.1
2018-Jun-18 15:56N 36°07' W 005°22'0 0.1
2018-Jun-18 12:47N 36°07' W 005°22'0 0.1
2018-Jun-18 12:30N 36°07' W 005°22'1 2.0
2018-Jun-18 11:57N 36°06' W 005°22'3 7.0
2018-Jun-18 11:30N 36°05' W 005°19'510.0
2018-Jun-18 11:00N 36°06' W 005°13'7 1.4
2018-Jun-18 05:55N 36°08' W 005°04'2 3.1
2018-Jun-18 05:12N 36°10' W 005°03'0 1.6
2018-Jun-18 05:00N 36°10' W 005°04'0 0.4
2018-Jun-18 04:30N 36°10' W 005°03'3 0.7
2018-Jun-18 00:20N 36°07' W 005°05'186 7.6
2018-Jun-16 23:47N 36°33' W 001°16'1211.2
2018-Jun-16 22:43N 36°35' W 001°01'1311.7
2018-Jun-16 21:35N 36°38' W 000°45'211.4
2018-Jun-16 21:26N 36°38' W 000°43'911.4
2018-Jun-16 20:41N 36°39' W 000°32'211.3
2018-Jun-16 20:30N 36°40' W 000°30'611.5
2018-Jun-16 20:00N 36°40' W 000°23'611.6
2018-Jun-16 19:30N 36°42' W 000°16'611.4
2018-Jun-16 19:00N 36°43' W 000°09'611.5
2018-Jun-16 18:30N 36°44' W 000°02'611.9
2018-Jun-16 18:00N 36°45' E 000°06'612.3
2018-Jun-16 17:30N 36°46' E 000°13'612.2
2018-Jun-16 17:00N 36°47' E 000°21'611.9
2018-Jun-16 16:30N 36°48' E 000°28'612.0
2018-Jun-16 16:00N 36°49' E 000°35'611.9
2018-Jun-16 15:30N 36°50' E 000°43'611.7
2018-Jun-16 15:00N 36°51' E 000°50'611.9
2018-Jun-16 14:30N 36°52' E 000°57'612.0
2018-Jun-16 14:00N 36°53' E 001°05'611.8
2018-Jun-16 13:30N 36°54' E 001°12'611.8
2018-Jun-16 13:00N 36°55' E 001°19'611.8
2018-Jun-16 12:30N 36°56' E 001°26'611.7
2018-Jun-16 12:00N 36°57' E 001°34'611.5
2018-Jun-16 11:30N 36°58' E 001°41'611.6
2018-Jun-16 11:00N 36°59' E 001°48'611.5
2018-Jun-16 10:30N 36°60' E 001°55'611.4
2018-Jun-16 10:00N 37°01' E 002°02'511.2
2018-Jun-16 09:30N 37°02' E 002°09'611.0
2018-Jun-16 09:00N 37°03' E 002°16'610.5
2018-Jun-16 08:28N 37°04' E 002°23'510.3
2018-Jun-16 08:00N 37°04' E 002°29'510.4
2018-Jun-16 07:30N 37°05' E 002°35'611.7
2018-Jun-16 07:00N 37°06' E 002°42'611.7
2018-Jun-16 06:30N 37°07' E 002°49'611.7
2018-Jun-16 06:00N 37°08' E 002°57'611.9
2018-Jun-16 05:30N 37°09' E 003°04'712.2
2018-Jun-16 04:58N 37°10' E 003°12'612.2
2018-Jun-16 04:30N 37°10' E 003°19'1412.2
2018-Jun-16 03:21N 37°12' E 003°37'412.0
2018-Jun-16 03:00N 37°12' E 003°42'611.7
2018-Jun-16 02:30N 37°13' E 003°50'611.4
2018-Jun-16 01:59N 37°14' E 003°57'611.3
2018-Jun-16 01:30N 37°15' E 004°04'611.4
2018-Jun-16 01:00N 37°16' E 004°11'611.4
2018-Jun-16 00:30N 37°16' E 004°18'611.2
2018-Jun-15 23:58N 37°17' E 004°25'511.2
2018-Jun-15 23:29N 37°17' E 004°32'2011.2
2018-Jun-15 21:44N 37°20' E 004°56'1811.0
2018-Jun-15 20:04N 37°22' E 005°19'  
2018-Jun-13 05:43N 38°08' E 016°47'13211.1
2018-Jun-12 17:49N 40°19' E 017°09'411.8
2018-Jun-12 17:29N 40°23' E 017°08'4 8.6
2018-Jun-12 16:59N 40°26' E 017°11'3 6.0
2018-Jun-12 16:30N 40°29' E 017°13'0 0.0
2018-Jun-12 15:59N 40°29' E 017°13'0 0.0
2018-Jun-12 15:29N 40°29' E 017°13'0 0.0
2018-Jun-12 14:59N 40°29' E 017°13'0 0.0
2018-Jun-12 14:29N 40°29' E 017°13'0 0.0
2018-Jun-12 13:59N 40°29' E 017°13'0 0.0
2018-Jun-12 13:29N 40°29' E 017°13'0 0.0
2018-Jun-12 12:59N 40°29' E 017°13'0 0.0
2018-Jun-12 12:29N 40°29' E 017°13'0 0.0
2018-Jun-12 11:59N 40°29' E 017°13'0 0.0
2018-Jun-12 11:29N 40°29' E 017°13'0 0.0
2018-Jun-12 10:59N 40°29' E 017°13'0 0.0
2018-Jun-12 10:29N 40°29' E 017°13'0 0.0
2018-Jun-12 09:59N 40°29' E 017°13'0 0.0
2018-Jun-12 09:29N 40°29' E 017°13'0 0.0
2018-Jun-12 08:59N 40°29' E 017°13'0 0.0
2018-Jun-12 08:29N 40°29' E 017°13'0 0.0
2018-Jun-12 07:59N 40°29' E 017°13'0 0.0
2018-Jun-12 07:29N 40°29' E 017°13'0 0.0
2018-Jun-12 06:59N 40°29' E 017°13'0 0.0
2018-Jun-12 06:29N 40°29' E 017°13'0 0.0
2018-Jun-12 05:59N 40°29' E 017°13'0 0.0
2018-Jun-12 05:29N 40°29' E 017°13'0 0.0
2018-Jun-12 04:59N 40°29' E 017°13'0 0.0
2018-Jun-12 04:29N 40°29' E 017°13'0 0.0
2018-Jun-12 03:59N 40°29' E 017°13'0 0.0
2018-Jun-12 03:29N 40°29' E 017°13'0 0.0
2018-Jun-12 02:59N 40°29' E 017°13'0 0.0
2018-Jun-12 02:29N 40°29' E 017°13'0 0.0
2018-Jun-12 01:59N 40°29' E 017°13'0 0.0
2018-Jun-12 01:29N 40°29' E 017°13'0 0.0
2018-Jun-12 00:56N 40°29' E 017°13'0 0.0
2018-Jun-12 00:29N 40°29' E 017°13'0 0.0
2018-Jun-11 23:59N 40°29' E 017°13'0 0.0
2018-Jun-11 23:29N 40°29' E 017°13'0 0.0
2018-Jun-11 22:59N 40°29' E 017°13'0 0.0
2018-Jun-11 22:26N 40°29' E 017°13'0 0.0
2018-Jun-11 21:59N 40°29' E 017°13'0 0.0
2018-Jun-11 21:29N 40°29' E 017°13'0 0.0
2018-Jun-11 20:59N 40°29' E 017°13'0 0.0
2018-Jun-11 20:29N 40°29' E 017°13'0 0.0
2018-Jun-11 19:59N 40°29' E 017°13'0 0.0
2018-Jun-11 19:29N 40°29' E 017°13'0 0.0
2018-Jun-11 18:59N 40°29' E 017°13'0 0.0
2018-Jun-11 18:29N 40°29' E 017°13'0 0.0
2018-Jun-11 17:59N 40°29' E 017°13'0 0.0
2018-Jun-11 17:29N 40°29' E 017°13'0 0.0
2018-Jun-11 16:59N 40°29' E 017°13'0 0.0
2018-Jun-11 16:29N 40°29' E 017°13'0 0.0
2018-Jun-11 15:59N 40°29' E 017°13'0 0.0
2018-Jun-11 15:29N 40°29' E 017°13'0 0.0
2018-Jun-11 14:59N 40°29' E 017°13'0 0.0
2018-Jun-11 14:29N 40°29' E 017°13'0 0.0
2018-Jun-11 13:59N 40°29' E 017°13'0 0.0
2018-Jun-11 13:29N 40°29' E 017°13'0 0.0
2018-Jun-11 12:59N 40°29' E 017°13'0 0.0
2018-Jun-11 12:29N 40°29' E 017°13'0 0.0
2018-Jun-11 11:59N 40°29' E 017°13'0 0.0
2018-Jun-11 11:29N 40°29' E 017°13'0 0.0
2018-Jun-11 10:59N 40°29' E 017°13'0 0.0
2018-Jun-11 10:29N 40°29' E 017°13'0 0.0
2018-Jun-11 09:59N 40°29' E 017°13'0 0.0
2018-Jun-11 09:29N 40°29' E 017°13'0 0.0
2018-Jun-11 08:59N 40°29' E 017°13'0 0.0
2018-Jun-11 08:29N 40°29' E 017°13'0 0.0
2018-Jun-11 07:59N 40°29' E 017°13'0 0.0
2018-Jun-11 07:29N 40°29' E 017°13'0 0.0
2018-Jun-11 06:59N 40°29' E 017°13'0 0.0
2018-Jun-11 06:29N 40°29' E 017°13'0 0.0
2018-Jun-11 05:59N 40°29' E 017°13'0 0.0
2018-Jun-11 05:29N 40°29' E 017°13'0 0.0
2018-Jun-11 04:59N 40°29' E 017°13'0 0.0
2018-Jun-11 04:29N 40°29' E 017°13'0 0.0
2018-Jun-11 03:59N 40°29' E 017°13'0 0.0
2018-Jun-11 03:29N 40°29' E 017°13'0 0.0
2018-Jun-11 02:59N 40°29' E 017°13'0 0.0
2018-Jun-11 02:29N 40°29' E 017°13'0 0.0
2018-Jun-11 01:59N 40°29' E 017°13'0 0.0
2018-Jun-11 01:29N 40°29' E 017°13'0 0.0
2018-Jun-11 00:59N 40°29' E 017°13'0 0.0
2018-Jun-11 00:29N 40°29' E 017°13'0 0.0
2018-Jun-10 23:59N 40°29' E 017°13'0 0.0
2018-Jun-10 23:23N 40°29' E 017°13'0 0.0
2018-Jun-10 22:59N 40°29' E 017°13'0 0.0
2018-Jun-10 22:29N 40°29' E 017°13'0 0.0
2018-Jun-10 21:59N 40°29' E 017°13'0 0.0
2018-Jun-10 21:29N 40°29' E 017°13'0 0.0
2018-Jun-10 20:59N 40°29' E 017°13'0 0.0
2018-Jun-10 20:29N 40°29' E 017°13'0 0.0
2018-Jun-10 19:59N 40°29' E 017°13'0 0.0
2018-Jun-10 19:29N 40°29' E 017°13'0 0.0
2018-Jun-10 18:59N 40°29' E 017°13'0 0.0
2018-Jun-10 18:29N 40°29' E 017°13'0 0.0
2018-Jun-10 17:59N 40°29' E 017°13'0 0.0
2018-Jun-10 17:29N 40°29' E 017°13'0 0.0
2018-Jun-10 16:59N 40°29' E 017°13'0 0.0
2018-Jun-10 16:26N 40°29' E 017°13'0 0.0
2018-Jun-10 15:59N 40°29' E 017°13'0 0.0
2018-Jun-10 15:29N 40°29' E 017°13'0 0.0
2018-Jun-10 14:59N 40°29' E 017°13'0 0.0
2018-Jun-10 13:59N 40°29' E 017°13'0 0.0
2018-Jun-10 13:29N 40°29' E 017°13'0 0.0
2018-Jun-10 12:59N 40°29' E 017°13'0 0.0
2018-Jun-10 12:29N 40°29' E 017°13'0 0.0
2018-Jun-10 11:59N 40°29' E 017°13'0 0.0
2018-Jun-10 11:26N 40°29' E 017°13'0 0.0
2018-Jun-10 10:59N 40°29' E 017°13'0 0.0
2018-Jun-10 10:29N 40°29' E 017°13'0 0.0
2018-Jun-10 09:59N 40°29' E 017°13'0 0.0
2018-Jun-10 09:29N 40°29' E 017°13'0 0.0
2018-Jun-10 08:53N 40°29' E 017°13'0 0.0
2018-Jun-10 08:29N 40°29' E 017°13'0 0.0
2018-Jun-10 07:59N 40°29' E 017°13'0 0.0
2018-Jun-10 07:29N 40°29' E 017°13'0 0.0
2018-Jun-10 06:59N 40°29' E 017°13'0 0.0
2018-Jun-10 06:29N 40°29' E 017°13'0 0.0
2018-Jun-10 05:59N 40°29' E 017°13'0 0.0
2018-Jun-10 05:29N 40°29' E 017°13'0 0.0
2018-Jun-10 04:56N 40°29' E 017°13'0 0.0
2018-Jun-10 04:29N 40°29' E 017°13'0 0.0
2018-Jun-10 03:59N 40°29' E 017°13'0 0.0
2018-Jun-10 03:29N 40°29' E 017°13'0 0.0
2018-Jun-10 02:59N 40°29' E 017°13'0 0.0
2018-Jun-10 02:29N 40°29' E 017°13'0 0.0
2018-Jun-10 01:59N 40°29' E 017°13'0 0.0
2018-Jun-10 01:29N 40°29' E 017°13'0 0.0
2018-Jun-10 00:59N 40°29' E 017°13'0 0.0
2018-Jun-10 00:29N 40°29' E 017°13'0 0.0
2018-Jun-09 23:59N 40°29' E 017°13'0 0.0
2018-Jun-09 23:29N 40°29' E 017°13'0 0.0
2018-Jun-09 22:59N 40°29' E 017°13'0 0.0
2018-Jun-09 22:29N 40°29' E 017°13'0 0.0
2018-Jun-09 21:59N 40°29' E 017°13'0 0.0
2018-Jun-09 21:29N 40°29' E 017°13'0 0.0
2018-Jun-09 20:59N 40°29' E 017°13'0 0.0
2018-Jun-09 20:29N 40°29' E 017°13'0 0.0
2018-Jun-09 19:59N 40°29' E 017°13'0 0.0
2018-Jun-09 19:29N 40°29' E 017°13'0 0.0
2018-Jun-09 18:59N 40°29' E 017°13'0 0.0
2018-Jun-09 18:29N 40°29' E 017°13'0 0.0
2018-Jun-09 17:59N 40°29' E 017°13'0 0.0
2018-Jun-09 17:29N 40°29' E 017°13'0 0.1
2018-Jun-09 16:59N 40°29' E 017°13'  
Track history (hours):
 
Tides and Currents Weather Stations Pressure Air Temp Water Temp Dewpoint Dewpoint Depression Visibility Wind Speed Wind Dir Waves Ship Positions

Sbi Perseus

Last reported at 2018-Jun-19 16:34 UTC. Time now 2018-Jun-21 11:45 UTC.
Position N 35°59' W 007°56'.

Length 200 m; draft 12.3 m.

Type: Cargo ship. MMSI: 636017388.

Date/timePositionNaut miles runAvg speedWind from/ knotsBaromVisibWave heightAir tempDewpointWater temp
2018-Jun-19 16:34N 35°59' W 007°56'111.5
2018-Jun-19 16:30N 35°59' W 007°55'711.2
2018-Jun-19 15:51N 35°59' W 007°46'411.3
2018-Jun-19 15:27N 35°59' W 007°41'1111.1
2018-Jun-19 14:26N 35°59' W 007°27'101 7.4
2018-Jun-19 00:53N 36°07' W 005°22'0 0.0
2018-Jun-18 22:14N 36°07' W 005°22'0 0.1
2018-Jun-18 21:20N 36°07' W 005°22'0 0.2
2018-Jun-18 20:44N 36°07' W 005°22'0 0.1
2018-Jun-18 20:26N 36°07' W 005°22'0 0.1
2018-Jun-18 19:56N 36°07' W 005°22'0 0.0
2018-Jun-18 19:26N 36°07' W 005°22'0 0.0
2018-Jun-18 18:59N 36°07' W 005°22'0 0.3
2018-Jun-18 18:29N 36°07' W 005°22'0 0.0
2018-Jun-18 17:56N 36°07' W 005°22'0 0.0
2018-Jun-18 17:23N 36°07' W 005°22'0 0.0
2018-Jun-18 16:38N 36°07' W 005°22'0 0.1
2018-Jun-18 16:11N 36°07' W 005°22'0 0.1
2018-Jun-18 15:56N 36°07' W 005°22'0 0.1
2018-Jun-18 12:47N 36°07' W 005°22'0 0.1
2018-Jun-18 12:30N 36°07' W 005°22'1 2.0
2018-Jun-18 11:57N 36°06' W 005°22'3 7.0
2018-Jun-18 11:30N 36°05' W 005°19'510.0
2018-Jun-18 11:00N 36°06' W 005°13'7 1.4
2018-Jun-18 05:55N 36°08' W 005°04'2 3.1
2018-Jun-18 05:12N 36°10' W 005°03'0 1.6
2018-Jun-18 05:00N 36°10' W 005°04'0 0.4
2018-Jun-18 04:30N 36°10' W 005°03'3 0.7
2018-Jun-18 00:20N 36°07' W 005°05'186 7.6
2018-Jun-16 23:47N 36°33' W 001°16'1211.2
2018-Jun-16 22:43N 36°35' W 001°01'1311.7
2018-Jun-16 21:35N 36°38' W 000°45'211.4
2018-Jun-16 21:26N 36°38' W 000°43'911.4
2018-Jun-16 20:41N 36°39' W 000°32'211.3
2018-Jun-16 20:30N 36°40' W 000°30'611.5
2018-Jun-16 20:00N 36°40' W 000°23'611.6
2018-Jun-16 19:30N 36°42' W 000°16'611.4
2018-Jun-16 19:00N 36°43' W 000°09'611.5
2018-Jun-16 18:30N 36°44' W 000°02'611.9
2018-Jun-16 18:00N 36°45' E 000°06'612.3
2018-Jun-16 17:30N 36°46' E 000°13'612.2
2018-Jun-16 17:00N 36°47' E 000°21'611.9
2018-Jun-16 16:30N 36°48' E 000°28'612.0
2018-Jun-16 16:00N 36°49' E 000°35'611.9
2018-Jun-16 15:30N 36°50' E 000°43'611.7
2018-Jun-16 15:00N 36°51' E 000°50'611.9
2018-Jun-16 14:30N 36°52' E 000°57'612.0
2018-Jun-16 14:00N 36°53' E 001°05'611.8
2018-Jun-16 13:30N 36°54' E 001°12'611.8
2018-Jun-16 13:00N 36°55' E 001°19'611.8
2018-Jun-16 12:30N 36°56' E 001°26'611.7
2018-Jun-16 12:00N 36°57' E 001°34'611.5
2018-Jun-16 11:30N 36°58' E 001°41'611.6
2018-Jun-16 11:00N 36°59' E 001°48'611.5
2018-Jun-16 10:30N 36°60' E 001°55'611.4
2018-Jun-16 10:00N 37°01' E 002°02'511.2
2018-Jun-16 09:30N 37°02' E 002°09'611.0
2018-Jun-16 09:00N 37°03' E 002°16'610.5
2018-Jun-16 08:28N 37°04' E 002°23'510.3
2018-Jun-16 08:00N 37°04' E 002°29'510.4
2018-Jun-16 07:30N 37°05' E 002°35'611.7
2018-Jun-16 07:00N 37°06' E 002°42'611.7
2018-Jun-16 06:30N 37°07' E 002°49'611.7
2018-Jun-16 06:00N 37°08' E 002°57'611.9
2018-Jun-16 05:30N 37°09' E 003°04'712.2
2018-Jun-16 04:58N 37°10' E 003°12'612.2
2018-Jun-16 04:30N 37°10' E 003°19'1412.2
2018-Jun-16 03:21N 37°12' E 003°37'412.0
2018-Jun-16 03:00N 37°12' E 003°42'611.7
2018-Jun-16 02:30N 37°13' E 003°50'611.4
2018-Jun-16 01:59N 37°14' E 003°57'611.3
2018-Jun-16 01:30N 37°15' E 004°04'611.4
2018-Jun-16 01:00N 37°16' E 004°11'611.4
2018-Jun-16 00:30N 37°16' E 004°18'611.2
2018-Jun-15 23:58N 37°17' E 004°25'511.2
2018-Jun-15 23:29N 37°17' E 004°32'2011.2
2018-Jun-15 21:44N 37°20' E 004°56'1811.0
2018-Jun-15 20:04N 37°22' E 005°19'  
2018-Jun-13 05:43N 38°08' E 016°47'13211.1
2018-Jun-12 17:49N 40°19' E 017°09'411.8
2018-Jun-12 17:29N 40°23' E 017°08'4 8.6
2018-Jun-12 16:59N 40°26' E 017°11'3 6.0
2018-Jun-12 16:30N 40°29' E 017°13'0 0.0
2018-Jun-12 15:59N 40°29' E 017°13'0 0.0
2018-Jun-12 15:29N 40°29' E 017°13'0 0.0
2018-Jun-12 14:59N 40°29' E 017°13'0 0.0
2018-Jun-12 14:29N 40°29' E 017°13'0 0.0
2018-Jun-12 13:59N 40°29' E 017°13'0 0.0
2018-Jun-12 13:29N 40°29' E 017°13'0 0.0
2018-Jun-12 12:59N 40°29' E 017°13'0 0.0
2018-Jun-12 12:29N 40°29' E 017°13'0 0.0
2018-Jun-12 11:59N 40°29' E 017°13'0 0.0
2018-Jun-12 11:29N 40°29' E 017°13'0 0.0
2018-Jun-12 10:59N 40°29' E 017°13'0 0.0
2018-Jun-12 10:29N 40°29' E 017°13'0 0.0
2018-Jun-12 09:59N 40°29' E 017°13'0 0.0
2018-Jun-12 09:29N 40°29' E 017°13'0 0.0
2018-Jun-12 08:59N 40°29' E 017°13'0 0.0
2018-Jun-12 08:29N 40°29' E 017°13'0 0.0
2018-Jun-12 07:59N 40°29' E 017°13'0 0.0
2018-Jun-12 07:29N 40°29' E 017°13'0 0.0
2018-Jun-12 06:59N 40°29' E 017°13'0 0.0
2018-Jun-12 06:29N 40°29' E 017°13'0 0.0
2018-Jun-12 05:59N 40°29' E 017°13'0 0.0
2018-Jun-12 05:29N 40°29' E 017°13'0 0.0
2018-Jun-12 04:59N 40°29' E 017°13'0 0.0
2018-Jun-12 04:29N 40°29' E 017°13'0 0.0
2018-Jun-12 03:59N 40°29' E 017°13'0 0.0
2018-Jun-12 03:29N 40°29' E 017°13'0 0.0
2018-Jun-12 02:59N 40°29' E 017°13'0 0.0
2018-Jun-12 02:29N 40°29' E 017°13'0 0.0
2018-Jun-12 01:59N 40°29' E 017°13'0 0.0
2018-Jun-12 01:29N 40°29' E 017°13'0 0.0
2018-Jun-12 00:56N 40°29' E 017°13'0 0.0
2018-Jun-12 00:29N 40°29' E 017°13'0 0.0
2018-Jun-11 23:59N 40°29' E 017°13'0 0.0
2018-Jun-11 23:29N 40°29' E 017°13'0 0.0
2018-Jun-11 22:59N 40°29' E 017°13'0 0.0
2018-Jun-11 22:26N 40°29' E 017°13'0 0.0
2018-Jun-11 21:59N 40°29' E 017°13'0 0.0
2018-Jun-11 21:29N 40°29' E 017°13'0 0.0
2018-Jun-11 20:59N 40°29' E 017°13'0 0.0
2018-Jun-11 20:29N 40°29' E 017°13'0 0.0
2018-Jun-11 19:59N 40°29' E 017°13'0 0.0
2018-Jun-11 19:29N 40°29' E 017°13'0 0.0
2018-Jun-11 18:59N 40°29' E 017°13'0 0.0
2018-Jun-11 18:29N 40°29' E 017°13'0 0.0
2018-Jun-11 17:59N 40°29' E 017°13'0 0.0
2018-Jun-11 17:29N 40°29' E 017°13'0 0.0
2018-Jun-11 16:59N 40°29' E 017°13'0 0.0
2018-Jun-11 16:29N 40°29' E 017°13'0 0.0
2018-Jun-11 15:59N 40°29' E 017°13'0 0.0
2018-Jun-11 15:29N 40°29' E 017°13'0 0.0
2018-Jun-11 14:59N 40°29' E 017°13'0 0.0
2018-Jun-11 14:29N 40°29' E 017°13'0 0.0
2018-Jun-11 13:59N 40°29' E 017°13'0 0.0
2018-Jun-11 13:29N 40°29' E 017°13'0 0.0
2018-Jun-11 12:59N 40°29' E 017°13'0 0.0
2018-Jun-11 12:29N 40°29' E 017°13'0 0.0
2018-Jun-11 11:59N 40°29' E 017°13'0 0.0
2018-Jun-11 11:29N 40°29' E 017°13'0 0.0
2018-Jun-11 10:59N 40°29' E 017°13'0 0.0
2018-Jun-11 10:29N 40°29' E 017°13'0 0.0
2018-Jun-11 09:59N 40°29' E 017°13'0 0.0
2018-Jun-11 09:29N 40°29' E 017°13'0 0.0
2018-Jun-11 08:59N 40°29' E 017°13'0 0.0
2018-Jun-11 08:29N 40°29' E 017°13'0 0.0
2018-Jun-11 07:59N 40°29' E 017°13'0 0.0
2018-Jun-11 07:29N 40°29' E 017°13'0 0.0
2018-Jun-11 06:59N 40°29' E 017°13'0 0.0
2018-Jun-11 06:29N 40°29' E 017°13'0 0.0
2018-Jun-11 05:59N 40°29' E 017°13'0 0.0
2018-Jun-11 05:29N 40°29' E 017°13'0 0.0
2018-Jun-11 04:59N 40°29' E 017°13'0 0.0
2018-Jun-11 04:29N 40°29' E 017°13'0 0.0
2018-Jun-11 03:59N 40°29' E 017°13'0 0.0
2018-Jun-11 03:29N 40°29' E 017°13'0 0.0
2018-Jun-11 02:59N 40°29' E 017°13'0 0.0
2018-Jun-11 02:29N 40°29' E 017°13'0 0.0
2018-Jun-11 01:59N 40°29' E 017°13'0 0.0
2018-Jun-11 01:29N 40°29' E 017°13'0 0.0
2018-Jun-11 00:59N 40°29' E 017°13'0 0.0
2018-Jun-11 00:29N 40°29' E 017°13'0 0.0
2018-Jun-10 23:59N 40°29' E 017°13'0 0.0
2018-Jun-10 23:23N 40°29' E 017°13'0 0.0
2018-Jun-10 22:59N 40°29' E 017°13'0 0.0
2018-Jun-10 22:29N 40°29' E 017°13'0 0.0
2018-Jun-10 21:59N 40°29' E 017°13'0 0.0
2018-Jun-10 21:29N 40°29' E 017°13'0 0.0
2018-Jun-10 20:59N 40°29' E 017°13'0 0.0
2018-Jun-10 20:29N 40°29' E 017°13'0 0.0
2018-Jun-10 19:59N 40°29' E 017°13'0 0.0
2018-Jun-10 19:29N 40°29' E 017°13'0 0.0
2018-Jun-10 18:59N 40°29' E 017°13'0 0.0
2018-Jun-10 18:29N 40°29' E 017°13'0 0.0
2018-Jun-10 17:59N 40°29' E 017°13'0 0.0
2018-Jun-10 17:29N 40°29' E 017°13'0 0.0
2018-Jun-10 16:59N 40°29' E 017°13'0 0.0
2018-Jun-10 16:26N 40°29' E 017°13'0 0.0
2018-Jun-10 15:59N 40°29' E 017°13'0 0.0
2018-Jun-10 15:29N 40°29' E 017°13'0 0.0
2018-Jun-10 14:59N 40°29' E 017°13'0 0.0
2018-Jun-10 13:59N 40°29' E 017°13'0 0.0
2018-Jun-10 13:29N 40°29' E 017°13'0 0.0
2018-Jun-10 12:59N 40°29' E 017°13'0 0.0
2018-Jun-10 12:29N 40°29' E 017°13'0 0.0
2018-Jun-10 11:59N 40°29' E 017°13'0 0.0
2018-Jun-10 11:26N 40°29' E 017°13'0 0.0
2018-Jun-10 10:59N 40°29' E 017°13'0 0.0
2018-Jun-10 10:29N 40°29' E 017°13'0 0.0
2018-Jun-10 09:59N 40°29' E 017°13'0 0.0
2018-Jun-10 09:29N 40°29' E 017°13'0 0.0
2018-Jun-10 08:53N 40°29' E 017°13'0 0.0
2018-Jun-10 08:29N 40°29' E 017°13'0 0.0
2018-Jun-10 07:59N 40°29' E 017°13'0 0.0
2018-Jun-10 07:29N 40°29' E 017°13'0 0.0
2018-Jun-10 06:59N 40°29' E 017°13'0 0.0
2018-Jun-10 06:29N 40°29' E 017°13'0 0.0
2018-Jun-10 05:59N 40°29' E 017°13'0 0.0
2018-Jun-10 05:29N 40°29' E 017°13'0 0.0
2018-Jun-10 04:56N 40°29' E 017°13'0 0.0
2018-Jun-10 04:29N 40°29' E 017°13'0 0.0
2018-Jun-10 03:59N 40°29' E 017°13'0 0.0
2018-Jun-10 03:29N 40°29' E 017°13'0 0.0
2018-Jun-10 02:59N 40°29' E 017°13'0 0.0
2018-Jun-10 02:29N 40°29' E 017°13'0 0.0
2018-Jun-10 01:59N 40°29' E 017°13'0 0.0
2018-Jun-10 01:29N 40°29' E 017°13'0 0.0
2018-Jun-10 00:59N 40°29' E 017°13'0 0.0
2018-Jun-10 00:29N 40°29' E 017°13'0 0.0
2018-Jun-09 23:59N 40°29' E 017°13'0 0.0
2018-Jun-09 23:29N 40°29' E 017°13'0 0.0
2018-Jun-09 22:59N 40°29' E 017°13'0 0.0
2018-Jun-09 22:29N 40°29' E 017°13'0 0.0
2018-Jun-09 21:59N 40°29' E 017°13'0 0.0
2018-Jun-09 21:29N 40°29' E 017°13'0 0.0
2018-Jun-09 20:59N 40°29' E 017°13'0 0.0
2018-Jun-09 20:29N 40°29' E 017°13'0 0.0
2018-Jun-09 19:59N 40°29' E 017°13'0 0.0
2018-Jun-09 19:29N 40°29' E 017°13'0 0.0
2018-Jun-09 18:59N 40°29' E 017°13'0 0.0
2018-Jun-09 18:29N 40°29' E 017°13'0 0.0
2018-Jun-09 17:59N 40°29' E 017°13'0 0.0
2018-Jun-09 17:29N 40°29' E 017°13'0 0.1
2018-Jun-09 16:59N 40°29' E 017°13'  

Dump ship's entire track history